x

Central Aleutians 230nm Sw Dutch Harbor (46072) Wave Buoy

8:50pm - Fri 30th Jan 2015 All times are UTC.

  • Sig Wave height 13.1ft
  • Peak Period 10s
  • Average Period 7s
  • Wind
    25mph, 31mph gusts
  • Sea Temp 41°f
  • Air Temp 37°f
  • Sea Pressure 1027mb

More Historic Weather Station data

Upgrade to MSW Pro to gain access to the past 30 days of data for over 8000 Wavebouys and Weather Stations around the globe.

Join Pro

Comparision Forecast

View Surf forecast
   
Fri 01/30 8:50pm 13ft 10s 7s 25 31 mph 1027mb 41f 37f
7:50pm 12ft 10s 7s 22 29 mph 1026.8mb 41f 37f
6:50pm 12.5ft 11s 7s 25 29 mph 1026.5mb 41f 37f
5:50pm 14ft 11s 7s 25 29 mph 1026.6mb 41f 37f
4:50pm 13.5ft 11s 7s 25 31 mph 1026.6mb 41f 37f
3:50pm 12.5ft 12s 7s 25 31 mph 1026.7mb 41f 37f
2:50pm 12.5ft 12s 7s 29 34 mph 1026.8mb 41f 37f
1:50pm 12.5ft 12s 7s 29 36 mph 1027.2mb 41f 37f
12:50pm 12.5ft 13s 7s 29 36 mph 1027.1mb 41f 37f
11:50am 12ft 12s 6s 29 36 mph 1027.2mb 41f 37f
10:50am 12ft 8s 6s 31 38 mph 1027mb 41f 37f
9:50am 14ft 11s 7s 29 36 mph 1027mb 41f 37f
8:50am 15.5ft 11s 7s 31 38 mph 1026.7mb 41f 37f
7:50am 16ft 11s 7s 34 43 mph 1026.9mb 41f 37f
6:50am 15ft 11s 7s 34 40 mph 1026.7mb 41f 37f
5:50am 15.5ft 11s 7s 31 40 mph 1026.8mb 41f 37f
4:50am 18ft 11s 8s 34 40 mph 1026.4mb 41f 36f
3:50am 18ft 11s 8s 36 43 mph 1026mb 41f 36f
2:50am 17.5ft 12s 7s 34 43 mph 1025.6mb 41f 37f
1:50am 17ft 11s 7s 36 43 mph 1025.1mb 41f 36f
12:50am 19.5ft 12s 8s 36 45 mph 1024.7mb 41f 36f
Thu 01/29 11:50pm 15ft 12s 7s 34 43 mph 1024.9mb 41f 36f
10:50pm 17.5ft 12s 7s 36 43 mph 1024.8mb 41f 36f
9:50pm 19.5ft 11s  -  34 45 mph 1025.1mb 41f 36f
8:50pm 19.5ft 11s 8s 36 43 mph 1025.2mb 41f 36f
7:50pm 19.5ft 11s 8s 34 43 mph 1025.1mb 41f 36f
6:50pm 19.5ft 11s 8s 38 47 mph 1024.3mb 41f 36f
5:50pm 19.5ft 12s 8s 38 45 mph 1023.8mb 41f 36f
4:50pm 19.5ft 13s 8s 36 45 mph 1023.8mb 41f 36f
3:50pm 18.5ft 13s 8s 36 45 mph 1023.7mb 40f 36f
2:50pm 16.5ft 13s 7s 36 47 mph 1023.7mb 40f 36f
1:50pm 18.5ft 12s 8s 34 45 mph 1023.7mb 41f 36f
12:50pm 15.5ft 13s 8s 34 43 mph 1023.1mb 42f 36f
11:50am 16.5ft 13s 7s 36 43 mph 1022.4mb 42f 36f
10:50am 17.5ft 13s 8s 36 45 mph 1021.7mb 42f 36f
9:50am 17ft 13s 8s 36 43 mph 1021.4mb 41f 37f
8:50am 18.5ft 11s 7s 36 47 mph 1020.8mb 41f 37f
7:50am 21.5ft 12s 8s 36 47 mph 1020.3mb 41f 37f
6:50am 20ft 13s 8s 38 49 mph 1019.3mb 41f 37f
5:50am 22.5ft 11s 8s 38 47 mph 1018.6mb 41f 36f
4:50am 22.5ft 11s 8s 38 47 mph 1017.8mb 41f 36f
3:50am 23ft 11s 8s 40 49 mph 1016.9mb 41f 37f
2:50am 22.5ft 11s 8s 38 47 mph 1016.1mb 41f 37f
1:50am 19ft 11s 8s 38 49 mph 1015.3mb 40f 37f
12:50am 20.5ft 12s 8s 40 49 mph 1014.9mb 41f 37f
Wed 01/28 11:50pm 20ft 11s 8s 40 51 mph 1014mb 41f 38f
10:50pm 19.5ft 11s 8s 40 47 mph 1013.6mb 41f 38f
9:50pm 19.5ft 11s 8s 40 54 mph 1012.7mb 41f 38f
8:50pm 20ft 12s 8s 43 54 mph 1012.1mb 41f 38f
7:50pm 19.5ft 12s 8s 40 51 mph 1011.5mb 41f 38f
6:50pm 21.5ft 11s 8s 40 49 mph 1010.4mb 41f 38f
5:50pm 19.5ft 12s 8s 40 49 mph 1009.7mb 41f 38f
4:50pm 19ft 13s 8s 36 47 mph 1009mb 41f 38f
3:50pm 21ft 11s 8s 38 47 mph 1008.3mb 41f 38f
2:50pm 19ft 12s 8s 38 45 mph 1007.5mb 41f 39f
1:50pm 20.5ft 13s 9s 36 43 mph 1007mb 42f 39f
12:50pm 20.5ft 13s 9s 36 45 mph 1006mb 42f 39f
11:50am 21.5ft 13s 9s 38 45 mph 1004.9mb 42f 39f
10:50am 20ft 12s 8s 36 45 mph 1004.4mb 42f 38f
9:50am 18.5ft 13s 8s 38 47 mph 1003.3mb 42f 38f
8:50am 18.5ft 14s 8s 38 47 mph 1002.5mb 42f 38f
7:50am 19.5ft 11s 8s 38 49 mph 1001.7mb 41f 37f
6:50am 16.5ft 10s 7s 38 49 mph 1001.2mb 41f 37f
5:50am 18ft 11s 7s 38 45 mph 1000.6mb 40f 37f
4:50am 17.5ft 11s 7s 38 47 mph 1000mb 41f 37f
3:50am 15.5ft 11s 7s 38 45 mph 999.5mb 40f 37f
2:50am 16.5ft 8s 7s 36 43 mph 999.1mb 40f 37f
1:50am 15.5ft 11s 7s 36 45 mph 998.6mb 41f 38f
12:50am 15ft 8s 7s 34 43 mph 998.4mb 41f 38f
Tue 01/27 11:50pm 15.5ft 11s 7s 34 40 mph 998.4mb 40f 38f
10:50pm 14ft 10s 7s 29 36 mph 998.5mb 40f 37f
9:50pm 13ft 8s 6s 34 43 mph 998.3mb 40f 37f
8:50pm 12.5ft 11s 6s 29 36 mph 998.6mb 41f 37f
7:50pm 12ft 11s 6s 27 34 mph 998.3mb 41f 37f
6:50pm 11ft 7s 6s 27 31 mph 998mb 40f 37f
5:50pm 11.5ft 11s 6s 29 36 mph 997.2mb 40f 37f
4:50pm 12ft 8s 6s 31 40 mph 996.4mb 41f 37f
3:50pm 12ft 11s 7s 29 36 mph 996.4mb 41f 37f
2:50pm 13ft 8s 7s 31 36 mph 996mb 41f 36f
1:50pm 14.5ft 10s 7s 29 36 mph 995.8mb 40f 37f
12:50pm 14ft 11s 7s 29 36 mph 995.5mb 40f 37f
11:50am 12ft 12s 7s 29 38 mph 995.3mb 40f 37f
10:50am 13ft 11s 7s 29 36 mph 995mb 41f 37f
9:50am 12ft 11s 7s 29 36 mph 994.4mb 41f 37f
8:50am 12.5ft 11s 7s 29 38 mph 994mb 41f 37f
7:50am 12ft 12s 6s 31 36 mph 993.3mb 42f 38f
6:50am 12.5ft 13s 7s 29 38 mph 992.7mb 42f 38f
5:50am 12ft 11s 6s 29 36 mph 992mb 41f 38f
4:50am 13ft 11s 7s 31 38 mph 991.1mb 41f 38f
3:50am 12ft 11s 7s 31 38 mph 990.5mb 41f 37f
2:50am 10ft 13s 7s 27 31 mph 990.1mb 41f 37f
1:50am 11ft 14s 8s 18 25 mph 989.6mb 41f 38f
12:50am 11ft 13s 7s 22 27 mph 989.3mb 41f 38f
Mon 01/26 11:50pm 12ft 15s 8s 18 20 mph 989.6mb 41f 36f
10:50pm 12ft 14s 8s 13 16 mph 989.9mb 41f 36f